sensor_id;sensor_type;location;lat;lon;timestamp;P1;durP1;ratioP1;P2;durP2;ratioP2
5999;SDS011;3028;49.468;7.694;2022-11-20T00:03:17;3.13;;;2.92;;
5999;SDS011;3028;49.468;7.694;2022-11-20T00:05:18;2.53;;;2.33;;
5999;SDS011;3028;49.468;7.694;2022-11-20T00:07:22;2.30;;;2.10;;
5999;SDS011;3028;49.468;7.694;2022-11-20T00:09:23;3.47;;;3.20;;
5999;SDS011;3028;49.468;7.694;2022-11-20T00:11:25;3.28;;;3.08;;
5999;SDS011;3028;49.468;7.694;2022-11-20T00:13:28;3.00;;;2.78;;
5999;SDS011;3028;49.468;7.694;2022-11-20T00:15:30;2.42;;;2.22;;
5999;SDS011;3028;49.468;7.694;2022-11-20T00:17:32;2.58;;;2.38;;
5999;SDS011;3028;49.468;7.694;2022-11-20T00:19:34;2.70;;;2.50;;
5999;SDS011;3028;49.468;7.694;2022-11-20T00:21:36;2.80;;;2.60;;
5999;SDS011;3028;49.468;7.694;2022-11-20T00:23:37;2.70;;;2.50;;
5999;SDS011;3028;49.468;7.694;2022-11-20T00:25:39;2.72;;;2.47;;
5999;SDS011;3028;49.468;7.694;2022-11-20T00:27:41;3.40;;;3.10;;
5999;SDS011;3028;49.468;7.694;2022-11-20T00:29:42;2.83;;;2.60;;
5999;SDS011;3028;49.468;7.694;2022-11-20T00:31:44;4.20;;;3.80;;
5999;SDS011;3028;49.468;7.694;2022-11-20T00:33:46;3.80;;;3.47;;
5999;SDS011;3028;49.468;7.694;2022-11-20T00:35:47;4.10;;;3.80;;
5999;SDS011;3028;49.468;7.694;2022-11-20T00:37:49;4.43;;;4.13;;
5999;SDS011;3028;49.468;7.694;2022-11-20T00:39:51;4.65;;;4.25;;
5999;SDS011;3028;49.468;7.694;2022-11-20T00:41:52;4.18;;;3.58;;
5999;SDS011;3028;49.468;7.694;2022-11-20T00:43:54;4.40;;;3.80;;
5999;SDS011;3028;49.468;7.694;2022-11-20T00:45:57;5.10;;;4.70;;
5999;SDS011;3028;49.468;7.694;2022-11-20T00:48:00;4.03;;;3.72;;
5999;SDS011;3028;49.468;7.694;2022-11-20T00:50:01;3.80;;;3.50;;
5999;SDS011;3028;49.468;7.694;2022-11-20T00:52:03;4.43;;;4.03;;
5999;SDS011;3028;49.468;7.694;2022-11-20T00:54:05;3.55;;;3.25;;
5999;SDS011;3028;49.468;7.694;2022-11-20T00:56:08;3.95;;;3.63;;
5999;SDS011;3028;49.468;7.694;2022-11-20T00:58:12;2.70;;;2.50;;
5999;SDS011;3028;49.468;7.694;2022-11-20T01:00:15;4.07;;;3.65;;
5999;SDS011;3028;49.468;7.694;2022-11-20T01:02:17;4.38;;;3.97;;
5999;SDS011;3028;49.468;7.694;2022-11-20T01:04:18;3.80;;;3.50;;
5999;SDS011;3028;49.468;7.694;2022-11-20T01:06:30;4.50;;;4.13;;
5999;SDS011;3028;49.468;7.694;2022-11-20T01:08:34;4.47;;;4.07;;
5999;SDS011;3028;49.468;7.694;2022-11-20T01:10:36;4.07;;;3.67;;
5999;SDS011;3028;49.468;7.694;2022-11-20T01:12:38;3.58;;;3.25;;
5999;SDS011;3028;49.468;7.694;2022-11-20T01:14:39;5.32;;;4.93;;
5999;SDS011;3028;49.468;7.694;2022-11-20T01:16:42;4.35;;;3.95;;
5999;SDS011;3028;49.468;7.694;2022-11-20T01:18:46;4.78;;;4.38;;
5999;SDS011;3028;49.468;7.694;2022-11-20T01:20:49;4.63;;;4.30;;
5999;SDS011;3028;49.468;7.694;2022-11-20T01:22:50;4.25;;;3.85;;
5999;SDS011;3028;49.468;7.694;2022-11-20T01:24:52;4.85;;;4.35;;
5999;SDS011;3028;49.468;7.694;2022-11-20T01:26:54;5.10;;;4.70;;
5999;SDS011;3028;49.468;7.694;2022-11-20T01:28:56;4.90;;;4.50;;
5999;SDS011;3028;49.468;7.694;2022-11-20T01:30:58;4.28;;;3.90;;
5999;SDS011;3028;49.468;7.694;2022-11-20T01:33:00;4.22;;;3.83;;
5999;SDS011;3028;49.468;7.694;2022-11-20T01:35:02;4.00;;;3.67;;
5999;SDS011;3028;49.468;7.694;2022-11-20T01:37:04;4.13;;;3.83;;
5999;SDS011;3028;49.468;7.694;2022-11-20T01:39:07;5.43;;;4.93;;
5999;SDS011;3028;49.468;7.694;2022-11-20T01:41:16;3.60;;;3.30;;
5999;SDS011;3028;49.468;7.694;2022-11-20T01:43:36;7.82;;;3.55;;
5999;SDS011;3028;49.468;7.694;2022-11-20T01:47:49;4.30;;;3.85;;
5999;SDS011;3028;49.468;7.694;2022-11-20T01:49:56;4.30;;;3.90;;
5999;SDS011;3028;49.468;7.694;2022-11-20T01:52:07;4.03;;;3.70;;
5999;SDS011;3028;49.468;7.694;2022-11-20T01:54:17;4.03;;;3.72;;
5999;SDS011;3028;49.468;7.694;2022-11-20T01:56:21;4.40;;;3.70;;
5999;SDS011;3028;49.468;7.694;2022-11-20T01:58:25;3.70;;;3.40;;
5999;SDS011;3028;49.468;7.694;2022-11-20T02:00:30;4.68;;;4.28;;
5999;SDS011;3028;49.468;7.694;2022-11-20T02:02:32;3.90;;;3.45;;
5999;SDS011;3028;49.468;7.694;2022-11-20T02:04:34;5.32;;;4.90;;
5999;SDS011;3028;49.468;7.694;2022-11-20T02:06:36;3.95;;;3.60;;
5999;SDS011;3028;49.468;7.694;2022-11-20T02:08:40;4.10;;;3.70;;
5999;SDS011;3028;49.468;7.694;2022-11-20T02:10:42;5.60;;;4.20;;
5999;SDS011;3028;49.468;7.694;2022-11-20T02:12:44;4.72;;;4.05;;
5999;SDS011;3028;49.468;7.694;2022-11-20T02:15:05;5.22;;;4.75;;
5999;SDS011;3028;49.468;7.694;2022-11-20T02:17:07;4.57;;;4.18;;
5999;SDS011;3028;49.468;7.694;2022-11-20T02:19:12;6.15;;;4.43;;
5999;SDS011;3028;49.468;7.694;2022-11-20T02:21:23;3.78;;;3.35;;
5999;SDS011;3028;49.468;7.694;2022-11-20T02:25:56;4.72;;;4.32;;
5999;SDS011;3028;49.468;7.694;2022-11-20T02:27:59;4.45;;;4.05;;
5999;SDS011;3028;49.468;7.694;2022-11-20T02:30:03;5.50;;;4.00;;
5999;SDS011;3028;49.468;7.694;2022-11-20T02:32:05;5.43;;;3.90;;
5999;SDS011;3028;49.468;7.694;2022-11-20T02:34:07;3.65;;;3.30;;
5999;SDS011;3028;49.468;7.694;2022-11-20T02:36:09;4.38;;;3.97;;
5999;SDS011;3028;49.468;7.694;2022-11-20T02:38:13;5.03;;;3.85;;
5999;SDS011;3028;49.468;7.694;2022-11-20T02:40:15;4.43;;;4.03;;
5999;SDS011;3028;49.468;7.694;2022-11-20T02:42:17;3.95;;;3.55;;
5999;SDS011;3028;49.468;7.694;2022-11-20T02:44:19;5.82;;;3.72;;
5999;SDS011;3028;49.468;7.694;2022-11-20T02:46:21;3.80;;;3.50;;
5999;SDS011;3028;49.468;7.694;2022-11-20T02:48:23;3.58;;;3.28;;
5999;SDS011;3028;49.468;7.694;2022-11-20T02:50:25;4.47;;;4.07;;
5999;SDS011;3028;49.468;7.694;2022-11-20T02:52:27;4.90;;;4.50;;
5999;SDS011;3028;49.468;7.694;2022-11-20T02:54:28;4.50;;;4.20;;
5999;SDS011;3028;49.468;7.694;2022-11-20T02:56:30;5.32;;;4.82;;
5999;SDS011;3028;49.468;7.694;2022-11-20T02:58:32;3.70;;;3.38;;
5999;SDS011;3028;49.468;7.694;2022-11-20T03:00:34;4.38;;;3.25;;
5999;SDS011;3028;49.468;7.694;2022-11-20T03:02:36;4.70;;;4.25;;
5999;SDS011;3028;49.468;7.694;2022-11-20T03:04:38;3.80;;;3.53;;
5999;SDS011;3028;49.468;7.694;2022-11-20T03:06:40;3.88;;;3.55;;
5999;SDS011;3028;49.468;7.694;2022-11-20T03:08:41;4.35;;;3.45;;
5999;SDS011;3028;49.468;7.694;2022-11-20T03:10:43;4.70;;;3.80;;
5999;SDS011;3028;49.468;7.694;2022-11-20T03:12:45;3.65;;;3.35;;
5999;SDS011;3028;49.468;7.694;2022-11-20T03:14:47;3.78;;;3.47;;
5999;SDS011;3028;49.468;7.694;2022-11-20T03:16:53;3.50;;;3.28;;
5999;SDS011;3028;49.468;7.694;2022-11-20T03:18:55;3.92;;;3.25;;
5999;SDS011;3028;49.468;7.694;2022-11-20T03:20:57;4.10;;;3.70;;
5999;SDS011;3028;49.468;7.694;2022-11-20T03:23:00;5.68;;;3.75;;
5999;SDS011;3028;49.468;7.694;2022-11-20T03:25:02;4.13;;;3.83;;
5999;SDS011;3028;49.468;7.694;2022-11-20T03:27:04;3.05;;;2.85;;
5999;SDS011;3028;49.468;7.694;2022-11-20T03:29:06;4.22;;;3.92;;
5999;SDS011;3028;49.468;7.694;2022-11-20T03:31:09;3.70;;;3.40;;
5999;SDS011;3028;49.468;7.694;2022-11-20T03:33:12;3.97;;;3.67;;
5999;SDS011;3028;49.468;7.694;2022-11-20T03:35:13;4.30;;;3.90;;
5999;SDS011;3028;49.468;7.694;2022-11-20T03:37:15;4.45;;;4.10;;
5999;SDS011;3028;49.468;7.694;2022-11-20T03:39:17;4.00;;;3.60;;
5999;SDS011;3028;49.468;7.694;2022-11-20T03:41:23;4.75;;;4.30;;
5999;SDS011;3028;49.468;7.694;2022-11-20T03:43:26;5.60;;;4.15;;
5999;SDS011;3028;49.468;7.694;2022-11-20T03:45:28;5.45;;;3.47;;
5999;SDS011;3028;49.468;7.694;2022-11-20T03:47:30;4.63;;;4.22;;
5999;SDS011;3028;49.468;7.694;2022-11-20T03:49:31;5.28;;;4.78;;
5999;SDS011;3028;49.468;7.694;2022-11-20T03:51:34;4.70;;;4.30;;
5999;SDS011;3028;49.468;7.694;2022-11-20T03:53:36;5.93;;;4.72;;
5999;SDS011;3028;49.468;7.694;2022-11-20T03:55:38;5.78;;;5.30;;
5999;SDS011;3028;49.468;7.694;2022-11-20T03:57:40;5.00;;;4.50;;
5999;SDS011;3028;49.468;7.694;2022-11-20T03:59:42;4.68;;;4.28;;
5999;SDS011;3028;49.468;7.694;2022-11-20T04:01:43;4.85;;;4.40;;
5999;SDS011;3028;49.468;7.694;2022-11-20T04:03:51;4.72;;;4.22;;
5999;SDS011;3028;49.468;7.694;2022-11-20T04:05:53;4.75;;;4.35;;
5999;SDS011;3028;49.468;7.694;2022-11-20T04:07:55;4.65;;;4.25;;
5999;SDS011;3028;49.468;7.694;2022-11-20T04:09:57;4.85;;;4.30;;
5999;SDS011;3028;49.468;7.694;2022-11-20T04:11:58;5.40;;;5.00;;
5999;SDS011;3028;49.468;7.694;2022-11-20T04:14:01;5.78;;;4.88;;
5999;SDS011;3028;49.468;7.694;2022-11-20T04:16:05;5.25;;;4.82;;
5999;SDS011;3028;49.468;7.694;2022-11-20T04:18:07;5.72;;;5.13;;
5999;SDS011;3028;49.468;7.694;2022-11-20T04:20:09;5.22;;;4.32;;
5999;SDS011;3028;49.468;7.694;2022-11-20T04:22:11;4.90;;;4.50;;
5999;SDS011;3028;49.468;7.694;2022-11-20T04:24:13;4.53;;;4.13;;
5999;SDS011;3028;49.468;7.694;2022-11-20T04:26:15;5.32;;;4.82;;
5999;SDS011;3028;49.468;7.694;2022-11-20T04:28:17;4.32;;;4.03;;
5999;SDS011;3028;49.468;7.694;2022-11-20T04:30:18;4.70;;;4.30;;
5999;SDS011;3028;49.468;7.694;2022-11-20T04:32:20;4.65;;;4.25;;
5999;SDS011;3028;49.468;7.694;2022-11-20T04:34:22;3.35;;;3.03;;
5999;SDS011;3028;49.468;7.694;2022-11-20T04:36:24;5.28;;;4.85;;
5999;SDS011;3028;49.468;7.694;2022-11-20T04:38:27;6.00;;;4.57;;
5999;SDS011;3028;49.468;7.694;2022-11-20T04:40:29;5.03;;;4.63;;
5999;SDS011;3028;49.468;7.694;2022-11-20T04:42:31;5.50;;;5.10;;
5999;SDS011;3028;49.468;7.694;2022-11-20T04:44:33;5.03;;;4.63;;
5999;SDS011;3028;49.468;7.694;2022-11-20T04:46:35;4.85;;;4.45;;
5999;SDS011;3028;49.468;7.694;2022-11-20T04:48:39;4.85;;;4.45;;
5999;SDS011;3028;49.468;7.694;2022-11-20T04:50:41;4.38;;;4.00;;
5999;SDS011;3028;49.468;7.694;2022-11-20T04:52:42;4.40;;;4.10;;
5999;SDS011;3028;49.468;7.694;2022-11-20T04:54:44;5.10;;;4.70;;
5999;SDS011;3028;49.468;7.694;2022-11-20T04:56:49;5.35;;;3.63;;
5999;SDS011;3028;49.468;7.694;2022-11-20T04:58:51;4.53;;;4.15;;
5999;SDS011;3028;49.468;7.694;2022-11-20T05:00:52;3.22;;;3.03;;
5999;SDS011;3028;49.468;7.694;2022-11-20T05:02:54;4.95;;;4.60;;
5999;SDS011;3028;49.468;7.694;2022-11-20T05:04:56;4.63;;;4.22;;
5999;SDS011;3028;49.468;7.694;2022-11-20T05:06:57;4.78;;;4.28;;
5999;SDS011;3028;49.468;7.694;2022-11-20T05:08:59;3.85;;;3.55;;
5999;SDS011;3028;49.468;7.694;2022-11-20T05:11:06;3.30;;;3.00;;
5999;SDS011;3028;49.468;7.694;2022-11-20T05:13:09;4.00;;;3.55;;
5999;SDS011;3028;49.468;7.694;2022-11-20T05:15:11;4.63;;;4.03;;
5999;SDS011;3028;49.468;7.694;2022-11-20T05:17:12;11.10;;;4.10;;
5999;SDS011;3028;49.468;7.694;2022-11-20T05:19:14;3.53;;;3.22;;
5999;SDS011;3028;49.468;7.694;2022-11-20T05:21:16;3.97;;;3.67;;
5999;SDS011;3028;49.468;7.694;2022-11-20T05:23:18;3.58;;;3.28;;
5999;SDS011;3028;49.468;7.694;2022-11-20T05:25:20;5.68;;;4.05;;
5999;SDS011;3028;49.468;7.694;2022-11-20T05:27:21;3.80;;;3.50;;
5999;SDS011;3028;49.468;7.694;2022-11-20T05:29:23;3.90;;;3.55;;
5999;SDS011;3028;49.468;7.694;2022-11-20T05:31:25;3.13;;;2.90;;
5999;SDS011;3028;49.468;7.694;2022-11-20T05:33:28;3.63;;;3.33;;
5999;SDS011;3028;49.468;7.694;2022-11-20T05:35:30;2.80;;;2.60;;
5999;SDS011;3028;49.468;7.694;2022-11-20T05:37:32;3.00;;;2.70;;
5999;SDS011;3028;49.468;7.694;2022-11-20T05:39:33;3.25;;;2.92;;
5999;SDS011;3028;49.468;7.694;2022-11-20T05:41:35;3.95;;;3.65;;
5999;SDS011;3028;49.468;7.694;2022-11-20T05:43:37;2.85;;;2.65;;
5999;SDS011;3028;49.468;7.694;2022-11-20T05:45:40;3.35;;;2.70;;
5999;SDS011;3028;49.468;7.694;2022-11-20T05:47:42;3.42;;;3.13;;
5999;SDS011;3028;49.468;7.694;2022-11-20T05:49:44;2.40;;;2.20;;
5999;SDS011;3028;49.468;7.694;2022-11-20T05:51:45;3.75;;;2.38;;
5999;SDS011;3028;49.468;7.694;2022-11-20T05:53:47;2.97;;;2.70;;
5999;SDS011;3028;49.468;7.694;2022-11-20T05:55:56;2.83;;;2.63;;
5999;SDS011;3028;49.468;7.694;2022-11-20T05:58:03;2.78;;;2.58;;
5999;SDS011;3028;49.468;7.694;2022-11-20T06:00:05;2.30;;;2.10;;
5999;SDS011;3028;49.468;7.694;2022-11-20T06:02:07;2.78;;;2.58;;
5999;SDS011;3028;49.468;7.694;2022-11-20T06:04:09;2.58;;;2.38;;
5999;SDS011;3028;49.468;7.694;2022-11-20T06:06:11;7.60;;;2.63;;
5999;SDS011;3028;49.468;7.694;2022-11-20T06:08:12;2.97;;;2.63;;
5999;SDS011;3028;49.468;7.694;2022-11-20T06:10:14;2.67;;;2.47;;
5999;SDS011;3028;49.468;7.694;2022-11-20T06:12:16;5.28;;;2.65;;
5999;SDS011;3028;49.468;7.694;2022-11-20T06:14:17;2.78;;;2.30;;
5999;SDS011;3028;49.468;7.694;2022-11-20T06:16:19;2.00;;;1.90;;
5999;SDS011;3028;49.468;7.694;2022-11-20T06:18:21;2.70;;;2.33;;
5999;SDS011;3028;49.468;7.694;2022-11-20T06:20:23;2.03;;;1.92;;
5999;SDS011;3028;49.468;7.694;2022-11-20T06:22:24;2.35;;;2.10;;
5999;SDS011;3028;49.468;7.694;2022-11-20T06:24:26;2.65;;;2.45;;
5999;SDS011;3028;49.468;7.694;2022-11-20T06:26:28;2.47;;;2.28;;
5999;SDS011;3028;49.468;7.694;2022-11-20T06:28:29;2.47;;;2.38;;
5999;SDS011;3028;49.468;7.694;2022-11-20T06:30:31;1.65;;;1.55;;
5999;SDS011;3028;49.468;7.694;2022-11-20T06:32:33;2.67;;;2.47;;
5999;SDS011;3028;49.468;7.694;2022-11-20T06:34:35;1.98;;;1.88;;
5999;SDS011;3028;49.468;7.694;2022-11-20T06:36:36;2.67;;;2.35;;
5999;SDS011;3028;49.468;7.694;2022-11-20T06:38:38;2.25;;;2.00;;
5999;SDS011;3028;49.468;7.694;2022-11-20T06:40:41;2.50;;;2.30;;
5999;SDS011;3028;49.468;7.694;2022-11-20T06:42:43;3.25;;;2.97;;
5999;SDS011;3028;49.468;7.694;2022-11-20T06:44:44;2.33;;;2.15;;
5999;SDS011;3028;49.468;7.694;2022-11-20T06:46:46;2.50;;;2.30;;
5999;SDS011;3028;49.468;7.694;2022-11-20T06:48:48;3.30;;;2.25;;
5999;SDS011;3028;49.468;7.694;2022-11-20T06:50:50;2.60;;;2.40;;
5999;SDS011;3028;49.468;7.694;2022-11-20T06:52:52;2.22;;;2.03;;
5999;SDS011;3028;49.468;7.694;2022-11-20T06:54:54;2.53;;;2.13;;
5999;SDS011;3028;49.468;7.694;2022-11-20T06:56:55;2.00;;;1.90;;
5999;SDS011;3028;49.468;7.694;2022-11-20T06:58:57;3.22;;;2.95;;
5999;SDS011;3028;49.468;7.694;2022-11-20T07:01:03;1.77;;;1.67;;
5999;SDS011;3028;49.468;7.694;2022-11-20T07:03:08;2.10;;;2.00;;
5999;SDS011;3028;49.468;7.694;2022-11-20T07:05:11;2.08;;;1.98;;
5999;SDS011;3028;49.468;7.694;2022-11-20T07:07:12;2.28;;;2.10;;
5999;SDS011;3028;49.468;7.694;2022-11-20T07:09:14;2.97;;;2.75;;
5999;SDS011;3028;49.468;7.694;2022-11-20T07:11:16;3.17;;;2.97;;
5999;SDS011;3028;49.468;7.694;2022-11-20T07:13:17;2.50;;;2.30;;
5999;SDS011;3028;49.468;7.694;2022-11-20T07:15:20;2.50;;;2.33;;
5999;SDS011;3028;49.468;7.694;2022-11-20T07:17:22;3.17;;;2.30;;
5999;SDS011;3028;49.468;7.694;2022-11-20T07:19:23;2.75;;;2.60;;
5999;SDS011;3028;49.468;7.694;2022-11-20T07:21:25;2.72;;;2.58;;
5999;SDS011;3028;49.468;7.694;2022-11-20T07:23:27;2.97;;;2.67;;
5999;SDS011;3028;49.468;7.694;2022-11-20T07:25:29;3.25;;;2.95;;
5999;SDS011;3028;49.468;7.694;2022-11-20T07:27:31;3.35;;;3.05;;
5999;SDS011;3028;49.468;7.694;2022-11-20T07:29:33;3.45;;;3.15;;
5999;SDS011;3028;49.468;7.694;2022-11-20T07:31:35;3.33;;;3.03;;
5999;SDS011;3028;49.468;7.694;2022-11-20T07:33:36;3.30;;;3.10;;
5999;SDS011;3028;49.468;7.694;2022-11-20T07:35:38;3.47;;;2.50;;
5999;SDS011;3028;49.468;7.694;2022-11-20T07:37:40;3.20;;;2.90;;
5999;SDS011;3028;49.468;7.694;2022-11-20T07:39:41;5.40;;;3.30;;
5999;SDS011;3028;49.468;7.694;2022-11-20T07:41:43;3.85;;;3.55;;
5999;SDS011;3028;49.468;7.694;2022-11-20T07:43:45;4.03;;;2.80;;
5999;SDS011;3028;49.468;7.694;2022-11-20T07:45:47;6.30;;;3.70;;
5999;SDS011;3028;49.468;7.694;2022-11-20T07:47:49;3.15;;;2.95;;
5999;SDS011;3028;49.468;7.694;2022-11-20T07:49:50;4.57;;;4.28;;
5999;SDS011;3028;49.468;7.694;2022-11-20T07:51:52;3.15;;;2.95;;
5999;SDS011;3028;49.468;7.694;2022-11-20T07:54:04;3.85;;;3.55;;
5999;SDS011;3028;49.468;7.694;2022-11-20T07:56:06;7.43;;;3.88;;
5999;SDS011;3028;49.468;7.694;2022-11-20T07:58:08;6.38;;;4.80;;
5999;SDS011;3028;49.468;7.694;2022-11-20T08:00:10;5.35;;;4.95;;
5999;SDS011;3028;49.468;7.694;2022-11-20T08:02:12;5.28;;;4.88;;
5999;SDS011;3028;49.468;7.694;2022-11-20T08:04:14;5.50;;;5.00;;
5999;SDS011;3028;49.468;7.694;2022-11-20T08:06:17;4.80;;;4.40;;
5999;SDS011;3028;49.468;7.694;2022-11-20T08:08:20;5.85;;;5.35;;
5999;SDS011;3028;49.468;7.694;2022-11-20T08:10:22;6.15;;;5.65;;
5999;SDS011;3028;49.468;7.694;2022-11-20T08:12:24;6.35;;;5.85;;
5999;SDS011;3028;49.468;7.694;2022-11-20T08:14:45;6.45;;;5.88;;
5999;SDS011;3028;49.468;7.694;2022-11-20T08:16:47;5.70;;;5.18;;
5999;SDS011;3028;49.468;7.694;2022-11-20T08:18:50;5.72;;;5.22;;
5999;SDS011;3028;49.468;7.694;2022-11-20T08:20:54;5.05;;;4.22;;
5999;SDS011;3028;49.468;7.694;2022-11-20T08:23:02;4.93;;;4.53;;
5999;SDS011;3028;49.468;7.694;2022-11-20T08:25:07;6.85;;;5.35;;
5999;SDS011;3028;49.468;7.694;2022-11-20T08:27:09;5.55;;;5.07;;
5999;SDS011;3028;49.468;7.694;2022-11-20T08:29:10;6.05;;;5.55;;
5999;SDS011;3028;49.468;7.694;2022-11-20T08:31:12;6.13;;;5.35;;
5999;SDS011;3028;49.468;7.694;2022-11-20T08:33:14;5.03;;;4.63;;
5999;SDS011;3028;49.468;7.694;2022-11-20T08:35:16;6.10;;;5.60;;
5999;SDS011;3028;49.468;7.694;2022-11-20T08:37:17;6.43;;;5.72;;
5999;SDS011;3028;49.468;7.694;2022-11-20T08:39:19;5.88;;;5.38;;
5999;SDS011;3028;49.468;7.694;2022-11-20T08:41:21;12.35;;;6.30;;
5999;SDS011;3028;49.468;7.694;2022-11-20T08:43:29;6.07;;;5.68;;
5999;SDS011;3028;49.468;7.694;2022-11-20T08:45:31;5.63;;;5.22;;
5999;SDS011;3028;49.468;7.694;2022-11-20T08:47:35;5.38;;;4.97;;
5999;SDS011;3028;49.468;7.694;2022-11-20T08:49:36;4.95;;;4.55;;
5999;SDS011;3028;49.468;7.694;2022-11-20T08:51:38;5.53;;;5.13;;
5999;SDS011;3028;49.468;7.694;2022-11-20T08:53:40;4.97;;;4.57;;
5999;SDS011;3028;49.468;7.694;2022-11-20T08:55:42;6.28;;;5.78;;
5999;SDS011;3028;49.468;7.694;2022-11-20T08:57:44;4.97;;;4.55;;
5999;SDS011;3028;49.468;7.694;2022-11-20T08:59:51;5.90;;;5.47;;
5999;SDS011;3028;49.468;7.694;2022-11-20T09:02:07;5.05;;;4.65;;
5999;SDS011;3028;49.468;7.694;2022-11-20T09:04:09;5.15;;;4.72;;
5999;SDS011;3028;49.468;7.694;2022-11-20T09:06:10;5.43;;;5.00;;
5999;SDS011;3028;49.468;7.694;2022-11-20T09:08:12;5.07;;;4.47;;
5999;SDS011;3028;49.468;7.694;2022-11-20T09:10:14;6.00;;;5.40;;
5999;SDS011;3028;49.468;7.694;2022-11-20T09:12:25;4.95;;;4.45;;
5999;SDS011;3028;49.468;7.694;2022-11-20T09:14:26;4.65;;;4.28;;
5999;SDS011;3028;49.468;7.694;2022-11-20T09:16:30;4.40;;;4.10;;
5999;SDS011;3028;49.468;7.694;2022-11-20T09:18:32;5.25;;;4.75;;
5999;SDS011;3028;49.468;7.694;2022-11-20T09:20:37;4.88;;;4.50;;
5999;SDS011;3028;49.468;7.694;2022-11-20T09:22:39;4.70;;;4.30;;
5999;SDS011;3028;49.468;7.694;2022-11-20T09:24:41;4.68;;;4.38;;
5999;SDS011;3028;49.468;7.694;2022-11-20T09:26:44;5.05;;;4.55;;
5999;SDS011;3028;49.468;7.694;2022-11-20T09:28:45;4.03;;;3.72;;
5999;SDS011;3028;49.468;7.694;2022-11-20T09:30:47;6.97;;;4.57;;
5999;SDS011;3028;49.468;7.694;2022-11-20T09:32:49;4.53;;;4.13;;
5999;SDS011;3028;49.468;7.694;2022-11-20T09:34:51;3.67;;;3.38;;
5999;SDS011;3028;49.468;7.694;2022-11-20T09:36:52;7.45;;;4.68;;
5999;SDS011;3028;49.468;7.694;2022-11-20T09:38:54;4.65;;;3.50;;
5999;SDS011;3028;49.468;7.694;2022-11-20T09:40:58;4.68;;;4.28;;
5999;SDS011;3028;49.468;7.694;2022-11-20T09:54:30;4.38;;;3.97;;
5999;SDS011;3028;49.468;7.694;2022-11-20T09:56:35;4.28;;;3.88;;
5999;SDS011;3028;49.468;7.694;2022-11-20T09:58:42;8.82;;;3.63;;
5999;SDS011;3028;49.468;7.694;2022-11-20T10:00:46;3.83;;;3.42;;
5999;SDS011;3028;49.468;7.694;2022-11-20T10:05:06;3.75;;;3.45;;
5999;SDS011;3028;49.468;7.694;2022-11-20T10:07:13;4.55;;;4.20;;
5999;SDS011;3028;49.468;7.694;2022-11-20T10:09:35;3.03;;;2.58;;
5999;SDS011;3028;49.468;7.694;2022-11-20T10:16:09;2.92;;;2.40;;
5999;SDS011;3028;49.468;7.694;2022-11-20T10:25:30;2.35;;;2.10;;
5999;SDS011;3028;49.468;7.694;2022-11-20T10:29:48;2.35;;;2.13;;
5999;SDS011;3028;49.468;7.694;2022-11-20T10:32:03;3.05;;;2.33;;
5999;SDS011;3028;49.468;7.694;2022-11-20T10:36:38;2.90;;;2.17;;
5999;SDS011;3028;49.468;7.694;2022-11-20T10:38:50;5.18;;;2.42;;
5999;SDS011;3028;49.468;7.694;2022-11-20T10:40:56;1.80;;;1.70;;
5999;SDS011;3028;49.468;7.694;2022-11-20T10:47:45;3.13;;;2.92;;
5999;SDS011;3028;49.468;7.694;2022-11-20T10:49:48;4.05;;;2.30;;
5999;SDS011;3028;49.468;7.694;2022-11-20T10:54:12;2.10;;;1.90;;
5999;SDS011;3028;49.468;7.694;2022-11-20T10:58:49;3.03;;;2.05;;
5999;SDS011;3028;49.468;7.694;2022-11-20T11:01:17;1.83;;;1.73;;
5999;SDS011;3028;49.468;7.694;2022-11-20T11:03:22;2.55;;;1.73;;
5999;SDS011;3028;49.468;7.694;2022-11-20T11:05:42;2.05;;;1.92;;
5999;SDS011;3028;49.468;7.694;2022-11-20T11:07:50;1.60;;;1.33;;
5999;SDS011;3028;49.468;7.694;2022-11-20T11:09:55;4.20;;;1.50;;
5999;SDS011;3028;49.468;7.694;2022-11-20T11:11:57;2.33;;;1.92;;
5999;SDS011;3028;49.468;7.694;2022-11-20T11:14:13;1.60;;;1.20;;
5999;SDS011;3028;49.468;7.694;2022-11-20T11:16:20;1.17;;;1.08;;
5999;SDS011;3028;49.468;7.694;2022-11-20T11:18:27;9.02;;;1.35;;
5999;SDS011;3028;49.468;7.694;2022-11-20T11:20:35;1.67;;;1.55;;
5999;SDS011;3028;49.468;7.694;2022-11-20T11:22:45;2.67;;;2.00;;
5999;SDS011;3028;49.468;7.694;2022-11-20T11:24:54;4.78;;;1.42;;
5999;SDS011;3028;49.468;7.694;2022-11-20T11:27:00;0.90;;;0.90;;
5999;SDS011;3028;49.468;7.694;2022-11-20T11:29:15;2.83;;;1.30;;
5999;SDS011;3028;49.468;7.694;2022-11-20T11:31:22;8.90;;;1.35;;
5999;SDS011;3028;49.468;7.694;2022-11-20T11:33:28;1.27;;;1.10;;
5999;SDS011;3028;49.468;7.694;2022-11-20T11:35:31;1.27;;;1.02;;
5999;SDS011;3028;49.468;7.694;2022-11-20T11:37:34;2.03;;;1.15;;
5999;SDS011;3028;49.468;7.694;2022-11-20T11:39:37;6.20;;;1.35;;
5999;SDS011;3028;49.468;7.694;2022-11-20T11:41:42;1.60;;;1.50;;
5999;SDS011;3028;49.468;7.694;2022-11-20T11:43:53;1.40;;;1.00;;
5999;SDS011;3028;49.468;7.694;2022-11-20T11:48:33;2.90;;;1.70;;
5999;SDS011;3028;49.468;7.694;2022-11-20T11:50:34;2.50;;;1.58;;
5999;SDS011;3028;49.468;7.694;2022-11-20T11:54:51;1.38;;;1.27;;
5999;SDS011;3028;49.468;7.694;2022-11-20T11:56:55;1.85;;;1.48;;
5999;SDS011;3028;49.468;7.694;2022-11-20T11:58:57;2.88;;;1.30;;
5999;SDS011;3028;49.468;7.694;2022-11-20T12:03:36;1.42;;;1.27;;
5999;SDS011;3028;49.468;7.694;2022-11-20T12:05:40;3.80;;;1.70;;
5999;SDS011;3028;49.468;7.694;2022-11-20T12:10:14;3.75;;;2.10;;
5999;SDS011;3028;49.468;7.694;2022-11-20T12:12:38;2.30;;;1.83;;
5999;SDS011;3028;49.468;7.694;2022-11-20T12:14:43;3.38;;;2.08;;
5999;SDS011;3028;49.468;7.694;2022-11-20T12:16:48;4.05;;;2.45;;
5999;SDS011;3028;49.468;7.694;2022-11-20T12:18:50;5.55;;;2.80;;
5999;SDS011;3028;49.468;7.694;2022-11-20T12:23:26;5.82;;;2.53;;
5999;SDS011;3028;49.468;7.694;2022-11-20T12:25:34;2.58;;;2.03;;
5999;SDS011;3028;49.468;7.694;2022-11-20T12:34:24;2.13;;;1.85;;
5999;SDS011;3028;49.468;7.694;2022-11-20T12:48:07;2.25;;;2.15;;
5999;SDS011;3028;49.468;7.694;2022-11-20T12:57:54;2.80;;;1.40;;
5999;SDS011;3028;49.468;7.694;2022-11-20T13:00:12;3.63;;;1.83;;
5999;SDS011;3028;49.468;7.694;2022-11-20T13:07:17;1.77;;;1.30;;
5999;SDS011;3028;49.468;7.694;2022-11-20T13:09:19;3.03;;;1.17;;
5999;SDS011;3028;49.468;7.694;2022-11-20T13:11:37;1.13;;;0.90;;
5999;SDS011;3028;49.468;7.694;2022-11-20T13:18:01;1.63;;;1.13;;
5999;SDS011;3028;49.468;7.694;2022-11-20T13:20:05;1.17;;;1.15;;
5999;SDS011;3028;49.468;7.694;2022-11-20T13:22:08;3.13;;;1.08;;
5999;SDS011;3028;49.468;7.694;2022-11-20T13:26:25;0.90;;;0.90;;
5999;SDS011;3028;49.468;7.694;2022-11-20T13:28:27;1.85;;;1.20;;
5999;SDS011;3028;49.468;7.694;2022-11-20T13:30:30;1.35;;;1.25;;
5999;SDS011;3028;49.468;7.694;2022-11-20T13:32:33;1.08;;;0.98;;
5999;SDS011;3028;49.468;7.694;2022-11-20T13:34:35;1.33;;;1.23;;
5999;SDS011;3028;49.468;7.694;2022-11-20T13:36:37;0.80;;;0.80;;
5999;SDS011;3028;49.468;7.694;2022-11-20T13:38:52;3.83;;;2.05;;
5999;SDS011;3028;49.468;7.694;2022-11-20T13:40:57;0.90;;;0.90;;
5999;SDS011;3028;49.468;7.694;2022-11-20T13:43:22;1.40;;;1.02;;
5999;SDS011;3028;49.468;7.694;2022-11-20T13:45:37;0.90;;;0.90;;
5999;SDS011;3028;49.468;7.694;2022-11-20T13:47:46;1.80;;;1.70;;
5999;SDS011;3028;49.468;7.694;2022-11-20T13:49:49;3.92;;;1.30;;
5999;SDS011;3028;49.468;7.694;2022-11-20T13:54:36;1.52;;;1.42;;
5999;SDS011;3028;49.468;7.694;2022-11-20T14:01:29;0.98;;;0.90;;
5999;SDS011;3028;49.468;7.694;2022-11-20T14:03:35;1.23;;;1.13;;
5999;SDS011;3028;49.468;7.694;2022-11-20T14:06:02;1.40;;;1.30;;
5999;SDS011;3028;49.468;7.694;2022-11-20T14:08:05;1.40;;;1.30;;
5999;SDS011;3028;49.468;7.694;2022-11-20T14:10:45;3.45;;;1.33;;
5999;SDS011;3028;49.468;7.694;2022-11-20T14:12:40;0.93;;;0.93;;
5999;SDS011;3028;49.468;7.694;2022-11-20T14:14:49;1.30;;;1.20;;
5999;SDS011;3028;49.468;7.694;2022-11-20T14:16:53;1.13;;;0.90;;
5999;SDS011;3028;49.468;7.694;2022-11-20T14:21:28;3.15;;;1.00;;
5999;SDS011;3028;49.468;7.694;2022-11-20T14:23:30;1.15;;;1.15;;
5999;SDS011;3028;49.468;7.694;2022-11-20T14:25:32;3.72;;;1.38;;
5999;SDS011;3028;49.468;7.694;2022-11-20T14:27:36;3.60;;;1.30;;
5999;SDS011;3028;49.468;7.694;2022-11-20T14:29:39;2.33;;;1.10;;
5999;SDS011;3028;49.468;7.694;2022-11-20T14:31:44;1.95;;;0.90;;
5999;SDS011;3028;49.468;7.694;2022-11-20T14:33:54;1.20;;;1.10;;
5999;SDS011;3028;49.468;7.694;2022-11-20T14:35:57;1.13;;;1.08;;